sensor_id;sensor_type;location;lat;lon;timestamp;P1;durP1;ratioP1;P2;durP2;ratioP2
23171;SDS011;11754;42.664;23.594;2024-03-22T00:01:50;16.60;;;8.05;;
23171;SDS011;11754;42.664;23.594;2024-03-22T00:04:16;23.98;;;9.93;;
23171;SDS011;11754;42.664;23.594;2024-03-22T00:06:42;21.25;;;9.30;;
23171;SDS011;11754;42.664;23.594;2024-03-22T00:09:09;16.52;;;7.60;;
23171;SDS011;11754;42.664;23.594;2024-03-22T00:11:34;15.80;;;8.18;;
23171;SDS011;11754;42.664;23.594;2024-03-22T00:14:00;17.38;;;9.05;;
23171;SDS011;11754;42.664;23.594;2024-03-22T00:16:26;18.55;;;8.43;;
23171;SDS011;11754;42.664;23.594;2024-03-22T00:18:52;15.75;;;6.60;;
23171;SDS011;11754;42.664;23.594;2024-03-22T00:21:17;11.85;;;6.55;;
23171;SDS011;11754;42.664;23.594;2024-03-22T00:23:43;13.00;;;6.78;;
23171;SDS011;11754;42.664;23.594;2024-03-22T00:26:10;14.27;;;7.47;;
23171;SDS011;11754;42.664;23.594;2024-03-22T00:28:35;15.02;;;7.72;;
23171;SDS011;11754;42.664;23.594;2024-03-22T00:31:00;13.27;;;6.78;;
23171;SDS011;11754;42.664;23.594;2024-03-22T00:33:26;14.65;;;7.68;;
23171;SDS011;11754;42.664;23.594;2024-03-22T00:35:51;19.60;;;9.15;;
23171;SDS011;11754;42.664;23.594;2024-03-22T00:38:16;21.40;;;10.30;;
23171;SDS011;11754;42.664;23.594;2024-03-22T00:40:42;18.73;;;10.18;;
23171;SDS011;11754;42.664;23.594;2024-03-22T00:43:07;21.02;;;9.68;;
23171;SDS011;11754;42.664;23.594;2024-03-22T00:45:33;20.88;;;8.18;;
23171;SDS011;11754;42.664;23.594;2024-03-22T00:47:58;15.05;;;7.40;;
23171;SDS011;11754;42.664;23.594;2024-03-22T00:50:23;17.92;;;7.72;;
23171;SDS011;11754;42.664;23.594;2024-03-22T00:52:52;12.90;;;7.15;;
23171;SDS011;11754;42.664;23.594;2024-03-22T00:55:19;11.77;;;6.38;;
23171;SDS011;11754;42.664;23.594;2024-03-22T00:57:45;13.50;;;5.80;;
23171;SDS011;11754;42.664;23.594;2024-03-22T01:00:10;14.77;;;5.90;;
23171;SDS011;11754;42.664;23.594;2024-03-22T01:05:58;9.25;;;5.97;;
23171;SDS011;11754;42.664;23.594;2024-03-22T01:08:23;9.23;;;5.70;;
23171;SDS011;11754;42.664;23.594;2024-03-22T01:10:48;10.07;;;6.30;;
23171;SDS011;11754;42.664;23.594;2024-03-22T01:13:15;11.18;;;6.07;;
23171;SDS011;11754;42.664;23.594;2024-03-22T01:15:40;11.68;;;6.68;;
23171;SDS011;11754;42.664;23.594;2024-03-22T01:18:06;11.55;;;7.25;;
23171;SDS011;11754;42.664;23.594;2024-03-22T01:20:31;14.60;;;8.70;;
23171;SDS011;11754;42.664;23.594;2024-03-22T01:22:56;15.35;;;7.85;;
23171;SDS011;11754;42.664;23.594;2024-03-22T01:25:23;13.68;;;7.72;;
23171;SDS011;11754;42.664;23.594;2024-03-22T01:27:49;14.15;;;7.32;;
23171;SDS011;11754;42.664;23.594;2024-03-22T01:30:14;16.85;;;7.93;;
23171;SDS011;11754;42.664;23.594;2024-03-22T01:32:40;16.20;;;8.75;;
23171;SDS011;11754;42.664;23.594;2024-03-22T01:35:05;14.98;;;7.88;;
23171;SDS011;11754;42.664;23.594;2024-03-22T01:37:31;13.13;;;7.68;;
23171;SDS011;11754;42.664;23.594;2024-03-22T01:39:56;13.02;;;7.20;;
23171;SDS011;11754;42.664;23.594;2024-03-22T01:42:22;11.20;;;6.72;;
23171;SDS011;11754;42.664;23.594;2024-03-22T01:44:48;12.63;;;6.82;;
23171;SDS011;11754;42.664;23.594;2024-03-22T01:47:14;13.60;;;7.60;;
23171;SDS011;11754;42.664;23.594;2024-03-22T01:49:40;14.40;;;6.90;;
23171;SDS011;11754;42.664;23.594;2024-03-22T01:52:06;11.98;;;6.53;;
23171;SDS011;11754;42.664;23.594;2024-03-22T01:54:31;12.82;;;7.05;;
23171;SDS011;11754;42.664;23.594;2024-03-22T01:56:57;11.95;;;7.22;;
23171;SDS011;11754;42.664;23.594;2024-03-22T01:59:22;15.30;;;7.18;;
23171;SDS011;11754;42.664;23.594;2024-03-22T02:01:48;15.60;;;8.52;;
23171;SDS011;11754;42.664;23.594;2024-03-22T02:04:14;17.05;;;8.45;;
23171;SDS011;11754;42.664;23.594;2024-03-22T02:06:40;16.13;;;8.18;;
23171;SDS011;11754;42.664;23.594;2024-03-22T02:09:05;17.08;;;7.40;;
23171;SDS011;11754;42.664;23.594;2024-03-22T02:11:34;12.98;;;6.90;;
23171;SDS011;11754;42.664;23.594;2024-03-22T02:14:02;13.57;;;7.55;;
23171;SDS011;11754;42.664;23.594;2024-03-22T02:16:28;11.10;;;6.88;;
23171;SDS011;11754;42.664;23.594;2024-03-22T02:18:54;12.73;;;6.90;;
23171;SDS011;11754;42.664;23.594;2024-03-22T02:21:19;17.83;;;8.48;;
23171;SDS011;11754;42.664;23.594;2024-03-22T02:23:45;12.95;;;7.40;;
23171;SDS011;11754;42.664;23.594;2024-03-22T02:26:10;16.58;;;7.75;;
23171;SDS011;11754;42.664;23.594;2024-03-22T02:28:36;13.68;;;7.75;;
23171;SDS011;11754;42.664;23.594;2024-03-22T02:31:04;11.80;;;7.18;;
23171;SDS011;11754;42.664;23.594;2024-03-22T02:33:30;14.80;;;7.32;;
23171;SDS011;11754;42.664;23.594;2024-03-22T02:35:56;19.23;;;7.68;;
23171;SDS011;11754;42.664;23.594;2024-03-22T02:38:21;13.60;;;7.65;;
23171;SDS011;11754;42.664;23.594;2024-03-22T02:40:48;14.63;;;7.80;;
23171;SDS011;11754;42.664;23.594;2024-03-22T02:43:14;23.88;;;10.98;;
23171;SDS011;11754;42.664;23.594;2024-03-22T02:45:40;17.95;;;9.07;;
23171;SDS011;11754;42.664;23.594;2024-03-22T02:48:06;19.98;;;9.52;;
23171;SDS011;11754;42.664;23.594;2024-03-22T02:50:35;18.00;;;9.27;;
23171;SDS011;11754;42.664;23.594;2024-03-22T02:53:01;16.40;;;8.25;;
23171;SDS011;11754;42.664;23.594;2024-03-22T02:55:27;14.00;;;7.18;;
23171;SDS011;11754;42.664;23.594;2024-03-22T02:57:52;10.77;;;6.68;;
23171;SDS011;11754;42.664;23.594;2024-03-22T03:00:18;9.55;;;5.82;;
23171;SDS011;11754;42.664;23.594;2024-03-22T03:02:43;11.63;;;6.47;;
23171;SDS011;11754;42.664;23.594;2024-03-22T03:05:09;10.48;;;5.43;;
23171;SDS011;11754;42.664;23.594;2024-03-22T03:07:35;13.32;;;6.35;;
23171;SDS011;11754;42.664;23.594;2024-03-22T03:10:00;10.23;;;5.78;;
23171;SDS011;11754;42.664;23.594;2024-03-22T03:12:26;18.70;;;5.95;;
23171;SDS011;11754;42.664;23.594;2024-03-22T03:14:51;9.25;;;5.82;;
23171;SDS011;11754;42.664;23.594;2024-03-22T03:17:17;10.30;;;5.82;;
23171;SDS011;11754;42.664;23.594;2024-03-22T03:19:42;10.00;;;6.10;;
23171;SDS011;11754;42.664;23.594;2024-03-22T03:22:07;11.73;;;7.28;;
23171;SDS011;11754;42.664;23.594;2024-03-22T03:24:33;14.05;;;7.03;;
23171;SDS011;11754;42.664;23.594;2024-03-22T03:26:58;10.10;;;6.40;;
23171;SDS011;11754;42.664;23.594;2024-03-22T03:29:24;17.30;;;9.20;;
23171;SDS011;11754;42.664;23.594;2024-03-22T03:31:49;14.82;;;8.38;;
23171;SDS011;11754;42.664;23.594;2024-03-22T03:34:14;15.85;;;8.43;;
23171;SDS011;11754;42.664;23.594;2024-03-22T03:36:40;9.85;;;5.82;;
23171;SDS011;11754;42.664;23.594;2024-03-22T03:39:06;11.77;;;6.97;;
23171;SDS011;11754;42.664;23.594;2024-03-22T03:41:31;13.55;;;6.93;;
23171;SDS011;11754;42.664;23.594;2024-03-22T03:43:57;10.48;;;6.70;;
23171;SDS011;11754;42.664;23.594;2024-03-22T03:46:22;11.25;;;6.90;;
23171;SDS011;11754;42.664;23.594;2024-03-22T03:48:48;13.43;;;7.07;;
23171;SDS011;11754;42.664;23.594;2024-03-22T03:51:13;11.48;;;6.85;;
23171;SDS011;11754;42.664;23.594;2024-03-22T03:53:38;14.30;;;7.07;;
23171;SDS011;11754;42.664;23.594;2024-03-22T03:56:04;14.43;;;6.95;;
23171;SDS011;11754;42.664;23.594;2024-03-22T03:58:29;12.57;;;6.68;;
23171;SDS011;11754;42.664;23.594;2024-03-22T04:00:55;16.23;;;7.45;;
23171;SDS011;11754;42.664;23.594;2024-03-22T04:03:20;13.98;;;7.13;;
23171;SDS011;11754;42.664;23.594;2024-03-22T04:05:46;17.77;;;7.97;;
23171;SDS011;11754;42.664;23.594;2024-03-22T04:08:11;14.13;;;8.50;;
23171;SDS011;11754;42.664;23.594;2024-03-22T04:10:36;17.85;;;8.02;;
23171;SDS011;11754;42.664;23.594;2024-03-22T04:13:11;13.65;;;6.72;;
23171;SDS011;11754;42.664;23.594;2024-03-22T04:15:36;14.88;;;8.30;;
23171;SDS011;11754;42.664;23.594;2024-03-22T04:18:02;14.52;;;7.55;;
23171;SDS011;11754;42.664;23.594;2024-03-22T04:20:27;13.70;;;7.78;;
23171;SDS011;11754;42.664;23.594;2024-03-22T04:22:52;13.30;;;7.30;;
23171;SDS011;11754;42.664;23.594;2024-03-22T04:25:18;9.55;;;6.28;;
23171;SDS011;11754;42.664;23.594;2024-03-22T04:27:44;12.73;;;6.75;;
23171;SDS011;11754;42.664;23.594;2024-03-22T04:30:09;11.95;;;6.85;;
23171;SDS011;11754;42.664;23.594;2024-03-22T04:32:35;12.95;;;6.63;;
23171;SDS011;11754;42.664;23.594;2024-03-22T04:35:02;21.60;;;10.57;;
23171;SDS011;11754;42.664;23.594;2024-03-22T04:37:28;28.70;;;16.98;;
23171;SDS011;11754;42.664;23.594;2024-03-22T04:39:53;24.95;;;14.50;;
23171;SDS011;11754;42.664;23.594;2024-03-22T04:42:19;28.85;;;13.63;;
23171;SDS011;11754;42.664;23.594;2024-03-22T04:44:44;27.38;;;14.40;;
23171;SDS011;11754;42.664;23.594;2024-03-22T04:47:10;25.65;;;13.10;;
23171;SDS011;11754;42.664;23.594;2024-03-22T04:49:35;26.38;;;14.40;;
23171;SDS011;11754;42.664;23.594;2024-03-22T04:52:00;27.55;;;14.80;;
23171;SDS011;11754;42.664;23.594;2024-03-22T04:54:26;32.78;;;14.32;;
23171;SDS011;11754;42.664;23.594;2024-03-22T04:56:51;29.50;;;17.02;;
23171;SDS011;11754;42.664;23.594;2024-03-22T04:59:17;32.83;;;16.85;;
23171;SDS011;11754;42.664;23.594;2024-03-22T05:01:42;34.47;;;17.33;;
23171;SDS011;11754;42.664;23.594;2024-03-22T05:04:09;27.52;;;14.75;;
23171;SDS011;11754;42.664;23.594;2024-03-22T05:06:34;23.20;;;10.95;;
23171;SDS011;11754;42.664;23.594;2024-03-22T05:09:00;22.52;;;11.82;;
23171;SDS011;11754;42.664;23.594;2024-03-22T05:11:25;22.02;;;12.95;;
23171;SDS011;11754;42.664;23.594;2024-03-22T05:13:51;23.08;;;13.18;;
23171;SDS011;11754;42.664;23.594;2024-03-22T05:16:16;24.38;;;13.77;;
23171;SDS011;11754;42.664;23.594;2024-03-22T05:18:41;27.38;;;14.23;;
23171;SDS011;11754;42.664;23.594;2024-03-22T05:21:08;27.58;;;13.63;;
23171;SDS011;11754;42.664;23.594;2024-03-22T05:23:34;42.97;;;14.85;;
23171;SDS011;11754;42.664;23.594;2024-03-22T05:25:59;30.38;;;14.50;;
23171;SDS011;11754;42.664;23.594;2024-03-22T05:28:24;22.55;;;12.07;;
23171;SDS011;11754;42.664;23.594;2024-03-22T05:30:50;31.50;;;13.57;;
23171;SDS011;11754;42.664;23.594;2024-03-22T05:33:15;27.33;;;12.93;;
23171;SDS011;11754;42.664;23.594;2024-03-22T05:35:41;24.52;;;11.25;;
23171;SDS011;11754;42.664;23.594;2024-03-22T05:38:06;25.45;;;10.70;;
23171;SDS011;11754;42.664;23.594;2024-03-22T05:40:32;19.35;;;9.57;;
23171;SDS011;11754;42.664;23.594;2024-03-22T05:42:57;21.75;;;10.07;;
23171;SDS011;11754;42.664;23.594;2024-03-22T05:45:22;26.85;;;11.23;;
23171;SDS011;11754;42.664;23.594;2024-03-22T05:47:48;34.10;;;12.77;;
23171;SDS011;11754;42.664;23.594;2024-03-22T05:50:13;30.17;;;12.18;;
23171;SDS011;11754;42.664;23.594;2024-03-22T05:52:39;27.13;;;11.65;;
23171;SDS011;11754;42.664;23.594;2024-03-22T05:55:05;24.60;;;11.50;;
23171;SDS011;11754;42.664;23.594;2024-03-22T05:57:31;30.70;;;10.75;;
23171;SDS011;11754;42.664;23.594;2024-03-22T05:59:56;16.75;;;8.95;;
23171;SDS011;11754;42.664;23.594;2024-03-22T06:02:21;15.18;;;8.20;;
23171;SDS011;11754;42.664;23.594;2024-03-22T06:04:48;15.10;;;7.97;;
23171;SDS011;11754;42.664;23.594;2024-03-22T06:07:13;17.38;;;8.35;;
23171;SDS011;11754;42.664;23.594;2024-03-22T06:09:41;17.15;;;8.70;;
23171;SDS011;11754;42.664;23.594;2024-03-22T06:12:13;19.25;;;8.68;;
23171;SDS011;11754;42.664;23.594;2024-03-22T06:14:40;15.90;;;7.85;;
23171;SDS011;11754;42.664;23.594;2024-03-22T06:17:06;16.25;;;7.63;;
23171;SDS011;11754;42.664;23.594;2024-03-22T06:19:31;15.20;;;8.18;;
23171;SDS011;11754;42.664;23.594;2024-03-22T06:21:57;26.75;;;10.30;;
23171;SDS011;11754;42.664;23.594;2024-03-22T06:24:22;28.45;;;16.17;;
23171;SDS011;11754;42.664;23.594;2024-03-22T06:26:48;18.88;;;9.68;;
23171;SDS011;11754;42.664;23.594;2024-03-22T06:29:14;18.98;;;9.50;;
23171;SDS011;11754;42.664;23.594;2024-03-22T06:31:41;19.92;;;10.82;;
23171;SDS011;11754;42.664;23.594;2024-03-22T06:34:07;19.10;;;10.23;;
23171;SDS011;11754;42.664;23.594;2024-03-22T06:36:33;18.15;;;10.30;;
23171;SDS011;11754;42.664;23.594;2024-03-22T06:38:58;16.58;;;8.48;;
23171;SDS011;11754;42.664;23.594;2024-03-22T06:41:29;19.15;;;8.38;;
23171;SDS011;11754;42.664;23.594;2024-03-22T06:43:55;11.65;;;7.20;;
23171;SDS011;11754;42.664;23.594;2024-03-22T06:46:20;76.75;;;45.15;;
23171;SDS011;11754;42.664;23.594;2024-03-22T06:48:45;14.45;;;8.27;;
23171;SDS011;11754;42.664;23.594;2024-03-22T06:51:11;16.50;;;8.60;;
23171;SDS011;11754;42.664;23.594;2024-03-22T06:53:37;11.98;;;8.23;;
23171;SDS011;11754;42.664;23.594;2024-03-22T06:56:03;12.93;;;7.25;;
23171;SDS011;11754;42.664;23.594;2024-03-22T06:58:29;10.85;;;7.20;;
23171;SDS011;11754;42.664;23.594;2024-03-22T07:00:54;13.77;;;7.57;;
23171;SDS011;11754;42.664;23.594;2024-03-22T07:03:20;17.10;;;8.23;;
23171;SDS011;11754;42.664;23.594;2024-03-22T07:05:46;15.07;;;8.95;;
23171;SDS011;11754;42.664;23.594;2024-03-22T07:08:12;15.20;;;8.93;;
23171;SDS011;11754;42.664;23.594;2024-03-22T07:10:38;13.30;;;8.30;;
23171;SDS011;11754;42.664;23.594;2024-03-22T07:13:04;17.83;;;9.05;;
23171;SDS011;11754;42.664;23.594;2024-03-22T07:15:30;17.17;;;9.25;;
23171;SDS011;11754;42.664;23.594;2024-03-22T07:17:57;17.05;;;8.93;;
23171;SDS011;11754;42.664;23.594;2024-03-22T07:20:23;17.35;;;8.32;;
23171;SDS011;11754;42.664;23.594;2024-03-22T07:22:49;16.17;;;8.00;;
23171;SDS011;11754;42.664;23.594;2024-03-22T07:25:15;27.42;;;9.50;;
23171;SDS011;11754;42.664;23.594;2024-03-22T07:27:40;24.17;;;9.15;;
23171;SDS011;11754;42.664;23.594;2024-03-22T07:30:06;24.58;;;8.32;;
23171;SDS011;11754;42.664;23.594;2024-03-22T07:32:31;23.73;;;8.23;;
23171;SDS011;11754;42.664;23.594;2024-03-22T07:34:57;16.13;;;7.57;;
23171;SDS011;11754;42.664;23.594;2024-03-22T07:37:23;16.00;;;7.70;;
23171;SDS011;11754;42.664;23.594;2024-03-22T07:39:48;16.17;;;8.15;;
23171;SDS011;11754;42.664;23.594;2024-03-22T07:42:14;17.48;;;7.95;;
23171;SDS011;11754;42.664;23.594;2024-03-22T07:44:39;18.27;;;8.13;;
23171;SDS011;11754;42.664;23.594;2024-03-22T07:47:05;22.60;;;8.25;;
23171;SDS011;11754;42.664;23.594;2024-03-22T07:49:31;23.45;;;8.50;;
23171;SDS011;11754;42.664;23.594;2024-03-22T07:51:58;13.15;;;6.97;;
23171;SDS011;11754;42.664;23.594;2024-03-22T07:54:24;24.98;;;7.80;;
23171;SDS011;11754;42.664;23.594;2024-03-22T07:56:50;12.30;;;8.05;;
23171;SDS011;11754;42.664;23.594;2024-03-22T07:59:15;12.35;;;6.95;;
23171;SDS011;11754;42.664;23.594;2024-03-22T08:01:41;17.58;;;6.63;;
23171;SDS011;11754;42.664;23.594;2024-03-22T08:04:06;14.70;;;6.13;;
23171;SDS011;11754;42.664;23.594;2024-03-22T08:06:31;9.25;;;4.88;;
23171;SDS011;11754;42.664;23.594;2024-03-22T08:08:57;11.45;;;4.85;;
23171;SDS011;11754;42.664;23.594;2024-03-22T08:11:23;13.07;;;4.40;;
23171;SDS011;11754;42.664;23.594;2024-03-22T08:13:48;14.20;;;4.07;;
23171;SDS011;11754;42.664;23.594;2024-03-22T08:16:13;7.72;;;4.13;;
23171;SDS011;11754;42.664;23.594;2024-03-22T08:18:39;9.00;;;4.00;;
23171;SDS011;11754;42.664;23.594;2024-03-22T08:21:04;8.80;;;4.07;;
23171;SDS011;11754;42.664;23.594;2024-03-22T08:23:29;5.55;;;3.38;;
23171;SDS011;11754;42.664;23.594;2024-03-22T08:25:55;13.15;;;4.13;;
23171;SDS011;11754;42.664;23.594;2024-03-22T08:28:22;5.93;;;3.47;;
23171;SDS011;11754;42.664;23.594;2024-03-22T08:30:47;6.40;;;3.58;;
23171;SDS011;11754;42.664;23.594;2024-03-22T08:33:13;6.03;;;3.75;;
23171;SDS011;11754;42.664;23.594;2024-03-22T08:35:38;5.65;;;3.42;;
23171;SDS011;11754;42.664;23.594;2024-03-22T08:38:04;4.85;;;3.10;;
23171;SDS011;11754;42.664;23.594;2024-03-22T08:40:35;5.93;;;2.97;;
23171;SDS011;11754;42.664;23.594;2024-03-22T08:43:03;4.95;;;3.25;;
23171;SDS011;11754;42.664;23.594;2024-03-22T08:45:30;4.95;;;3.10;;
23171;SDS011;11754;42.664;23.594;2024-03-22T08:47:55;5.28;;;3.33;;
23171;SDS011;11754;42.664;23.594;2024-03-22T08:50:20;6.22;;;3.70;;
23171;SDS011;11754;42.664;23.594;2024-03-22T08:52:46;5.13;;;3.70;;
23171;SDS011;11754;42.664;23.594;2024-03-22T08:55:11;6.10;;;3.50;;
23171;SDS011;11754;42.664;23.594;2024-03-22T08:57:38;6.90;;;3.90;;
23171;SDS011;11754;42.664;23.594;2024-03-22T09:00:03;14.38;;;3.58;;
23171;SDS011;11754;42.664;23.594;2024-03-22T09:02:29;4.63;;;3.20;;
23171;SDS011;11754;42.664;23.594;2024-03-22T09:04:55;5.00;;;3.35;;
23171;SDS011;11754;42.664;23.594;2024-03-22T09:07:20;6.97;;;3.30;;
23171;SDS011;11754;42.664;23.594;2024-03-22T09:09:46;8.70;;;3.80;;
23171;SDS011;11754;42.664;23.594;2024-03-22T09:12:11;6.00;;;3.60;;
23171;SDS011;11754;42.664;23.594;2024-03-22T09:14:37;5.75;;;3.70;;
23171;SDS011;11754;42.664;23.594;2024-03-22T09:17:02;7.35;;;3.38;;
23171;SDS011;11754;42.664;23.594;2024-03-22T09:19:28;7.82;;;3.60;;
23171;SDS011;11754;42.664;23.594;2024-03-22T09:21:53;6.70;;;3.47;;
23171;SDS011;11754;42.664;23.594;2024-03-22T09:24:19;5.70;;;3.17;;
23171;SDS011;11754;42.664;23.594;2024-03-22T09:26:45;5.55;;;3.47;;
23171;SDS011;11754;42.664;23.594;2024-03-22T09:29:10;6.10;;;3.47;;
23171;SDS011;11754;42.664;23.594;2024-03-22T09:31:38;5.72;;;3.38;;
23171;SDS011;11754;42.664;23.594;2024-03-22T09:34:03;4.82;;;3.17;;
23171;SDS011;11754;42.664;23.594;2024-03-22T09:36:28;4.30;;;3.10;;
23171;SDS011;11754;42.664;23.594;2024-03-22T09:38:59;6.30;;;3.22;;
23171;SDS011;11754;42.664;23.594;2024-03-22T09:41:25;6.05;;;4.40;;
23171;SDS011;11754;42.664;23.594;2024-03-22T09:43:53;7.63;;;3.72;;
23171;SDS011;11754;42.664;23.594;2024-03-22T09:46:22;4.82;;;3.00;;
23171;SDS011;11754;42.664;23.594;2024-03-22T09:48:48;8.52;;;4.00;;
23171;SDS011;11754;42.664;23.594;2024-03-22T09:51:17;4.47;;;3.13;;
23171;SDS011;11754;42.664;23.594;2024-03-22T09:53:49;4.70;;;3.30;;
23171;SDS011;11754;42.664;23.594;2024-03-22T09:56:17;11.63;;;6.82;;
23171;SDS011;11754;42.664;23.594;2024-03-22T09:58:46;4.15;;;3.22;;
23171;SDS011;11754;42.664;23.594;2024-03-22T10:01:11;5.82;;;2.92;;
23171;SDS011;11754;42.664;23.594;2024-03-22T10:03:37;9.38;;;4.03;;
23171;SDS011;11754;42.664;23.594;2024-03-22T10:06:03;3.90;;;2.70;;
23171;SDS011;11754;42.664;23.594;2024-03-22T10:08:29;3.25;;;2.58;;
23171;SDS011;11754;42.664;23.594;2024-03-22T10:10:55;2.55;;;2.25;;
23171;SDS011;11754;42.664;23.594;2024-03-22T10:13:20;5.40;;;2.40;;
23171;SDS011;11754;42.664;23.594;2024-03-22T10:15:46;22.30;;;4.07;;
23171;SDS011;11754;42.664;23.594;2024-03-22T10:18:11;6.13;;;2.30;;
23171;SDS011;11754;42.664;23.594;2024-03-22T10:20:37;3.95;;;2.13;;
23171;SDS011;11754;42.664;23.594;2024-03-22T10:23:03;5.00;;;2.10;;
23171;SDS011;11754;42.664;23.594;2024-03-22T10:25:29;6.88;;;2.22;;
23171;SDS011;11754;42.664;23.594;2024-03-22T10:27:55;7.72;;;2.80;;
23171;SDS011;11754;42.664;23.594;2024-03-22T10:30:22;7.20;;;2.55;;
23171;SDS011;11754;42.664;23.594;2024-03-22T10:32:49;5.90;;;2.20;;
23171;SDS011;11754;42.664;23.594;2024-03-22T10:35:15;3.78;;;2.05;;
23171;SDS011;11754;42.664;23.594;2024-03-22T10:37:42;2.63;;;1.95;;
23171;SDS011;11754;42.664;23.594;2024-03-22T10:40:07;4.50;;;2.15;;
23171;SDS011;11754;42.664;23.594;2024-03-22T10:42:38;4.00;;;2.42;;
23171;SDS011;11754;42.664;23.594;2024-03-22T10:45:05;3.60;;;2.38;;
23171;SDS011;11754;42.664;23.594;2024-03-22T10:47:32;5.65;;;2.30;;
23171;SDS011;11754;42.664;23.594;2024-03-22T10:50:01;3.15;;;2.50;;
23171;SDS011;11754;42.664;23.594;2024-03-22T10:52:35;5.53;;;2.70;;
23171;SDS011;11754;42.664;23.594;2024-03-22T10:55:03;6.22;;;2.75;;
23171;SDS011;11754;42.664;23.594;2024-03-22T10:57:31;5.60;;;2.55;;
23171;SDS011;11754;42.664;23.594;2024-03-22T11:00:01;6.75;;;2.70;;
23171;SDS011;11754;42.664;23.594;2024-03-22T11:02:29;5.57;;;2.45;;
23171;SDS011;11754;42.664;23.594;2024-03-22T11:04:57;8.45;;;2.75;;
23171;SDS011;11754;42.664;23.594;2024-03-22T11:07:23;6.15;;;2.72;;
23171;SDS011;11754;42.664;23.594;2024-03-22T11:09:55;4.80;;;3.10;;
23171;SDS011;11754;42.664;23.594;2024-03-22T11:12:21;5.65;;;2.80;;
23171;SDS011;11754;42.664;23.594;2024-03-22T11:14:55;6.65;;;2.78;;
23171;SDS011;11754;42.664;23.594;2024-03-22T11:17:20;4.03;;;2.75;;
23171;SDS011;11754;42.664;23.594;2024-03-22T11:19:50;3.75;;;2.10;;
23171;SDS011;11754;42.664;23.594;2024-03-22T11:22:17;3.40;;;2.10;;
23171;SDS011;11754;42.664;23.594;2024-03-22T11:24:42;4.03;;;1.98;;
23171;SDS011;11754;42.664;23.594;2024-03-22T11:27:08;2.70;;;1.73;;
23171;SDS011;11754;42.664;23.594;2024-03-22T11:29:35;2.03;;;1.38;;
23171;SDS011;11754;42.664;23.594;2024-03-22T11:32:04;4.25;;;1.58;;
23171;SDS011;11754;42.664;23.594;2024-03-22T11:34:29;2.35;;;1.58;;
23171;SDS011;11754;42.664;23.594;2024-03-22T11:36:55;1.80;;;1.20;;
23171;SDS011;11754;42.664;23.594;2024-03-22T11:39:21;1.70;;;1.50;;
23171;SDS011;11754;42.664;23.594;2024-03-22T11:41:46;1.80;;;1.20;;
23171;SDS011;11754;42.664;23.594;2024-03-22T11:44:14;3.72;;;1.33;;
23171;SDS011;11754;42.664;23.594;2024-03-22T11:46:41;6.55;;;1.80;;
23171;SDS011;11754;42.664;23.594;2024-03-22T11:49:07;3.90;;;1.60;;
23171;SDS011;11754;42.664;23.594;2024-03-22T11:51:33;6.47;;;1.52;;
23171;SDS011;11754;42.664;23.594;2024-03-22T11:53:58;2.13;;;1.20;;
23171;SDS011;11754;42.664;23.594;2024-03-22T11:56:24;1.92;;;1.27;;
23171;SDS011;11754;42.664;23.594;2024-03-22T11:58:57;2.20;;;1.40;;
23171;SDS011;11754;42.664;23.594;2024-03-22T12:01:23;3.20;;;1.40;;
23171;SDS011;11754;42.664;23.594;2024-03-22T12:03:49;1.77;;;1.15;;
23171;SDS011;11754;42.664;23.594;2024-03-22T12:06:17;3.17;;;1.40;;
23171;SDS011;11754;42.664;23.594;2024-03-22T12:08:43;9.90;;;6.43;;
23171;SDS011;11754;42.664;23.594;2024-03-22T12:11:08;18.33;;;1.73;;
23171;SDS011;11754;42.664;23.594;2024-03-22T12:13:35;3.97;;;1.30;;
23171;SDS011;11754;42.664;23.594;2024-03-22T12:16:00;4.70;;;1.90;;
23171;SDS011;11754;42.664;23.594;2024-03-22T12:18:27;3.97;;;1.20;;
23171;SDS011;11754;42.664;23.594;2024-03-22T12:20:52;1.25;;;0.90;;
23171;SDS011;11754;42.664;23.594;2024-03-22T12:23:18;2.80;;;1.30;;
23171;SDS011;11754;42.664;23.594;2024-03-22T12:25:43;2.45;;;1.35;;
23171;SDS011;11754;42.664;23.594;2024-03-22T12:28:09;2.70;;;1.27;;
23171;SDS011;11754;42.664;23.594;2024-03-22T12:30:34;5.72;;;2.10;;
23171;SDS011;11754;42.664;23.594;2024-03-22T12:33:00;2.05;;;0.90;;
23171;SDS011;11754;42.664;23.594;2024-03-22T12:35:26;4.05;;;1.00;;
23171;SDS011;11754;42.664;23.594;2024-03-22T12:37:52;3.03;;;1.20;;
23171;SDS011;11754;42.664;23.594;2024-03-22T12:40:18;3.63;;;0.98;;
23171;SDS011;11754;42.664;23.594;2024-03-22T12:42:43;2.42;;;1.00;;
23171;SDS011;11754;42.664;23.594;2024-03-22T12:45:09;3.40;;;1.30;;
23171;SDS011;11754;42.664;23.594;2024-03-22T12:47:34;1.92;;;0.82;;
23171;SDS011;11754;42.664;23.594;2024-03-22T12:50:00;4.93;;;1.20;;
23171;SDS011;11754;42.664;23.594;2024-03-22T12:52:25;1.67;;;0.93;;
23171;SDS011;11754;42.664;23.594;2024-03-22T12:54:51;2.15;;;0.90;;
23171;SDS011;11754;42.664;23.594;2024-03-22T12:57:16;1.50;;;0.77;;
23171;SDS011;11754;42.664;23.594;2024-03-22T12:59:41;2.10;;;1.02;;
23171;SDS011;11754;42.664;23.594;2024-03-22T13:02:07;2.75;;;0.90;;
23171;SDS011;11754;42.664;23.594;2024-03-22T13:04:33;3.42;;;1.00;;
23171;SDS011;11754;42.664;23.594;2024-03-22T13:06:58;2.95;;;1.00;;
23171;SDS011;11754;42.664;23.594;2024-03-22T13:09:24;2.20;;;0.98;;
23171;SDS011;11754;42.664;23.594;2024-03-22T13:11:49;3.50;;;1.20;;
23171;SDS011;11754;42.664;23.594;2024-03-22T13:14:14;4.45;;;1.30;;
23171;SDS011;11754;42.664;23.594;2024-03-22T13:16:40;4.78;;;1.50;;
23171;SDS011;11754;42.664;23.594;2024-03-22T13:19:06;2.70;;;1.20;;
23171;SDS011;11754;42.664;23.594;2024-03-22T13:21:33;4.65;;;1.30;;
23171;SDS011;11754;42.664;23.594;2024-03-22T13:23:59;1.73;;;1.10;;
23171;SDS011;11754;42.664;23.594;2024-03-22T13:26:24;2.00;;;1.20;;
23171;SDS011;11754;42.664;23.594;2024-03-22T13:28:50;2.97;;;1.38;;
23171;SDS011;11754;42.664;23.594;2024-03-22T13:31:16;2.05;;;1.20;;
23171;SDS011;11754;42.664;23.594;2024-03-22T13:33:42;3.88;;;1.10;;
23171;SDS011;11754;42.664;23.594;2024-03-22T13:36:08;4.13;;;1.40;;
23171;SDS011;11754;42.664;23.594;2024-03-22T13:38:33;3.88;;;1.20;;
23171;SDS011;11754;42.664;23.594;2024-03-22T13:40:59;2.25;;;1.27;;
23171;SDS011;11754;42.664;23.594;2024-03-22T13:43:29;2.08;;;1.20;;
23171;SDS011;11754;42.664;23.594;2024-03-22T13:45:54;2.35;;;1.20;;
23171;SDS011;11754;42.664;23.594;2024-03-22T13:48:21;3.05;;;1.10;;
23171;SDS011;11754;42.664;23.594;2024-03-22T13:50:56;2.10;;;1.10;;
23171;SDS011;11754;42.664;23.594;2024-03-22T13:53:22;2.65;;;1.20;;
23171;SDS011;11754;42.664;23.594;2024-03-22T13:55:48;2.60;;;1.40;;
23171;SDS011;11754;42.664;23.594;2024-03-22T13:58:14;3.50;;;1.83;;
23171;SDS011;11754;42.664;23.594;2024-03-22T14:00:40;4.40;;;2.08;;
23171;SDS011;11754;42.664;23.594;2024-03-22T14:03:05;2.17;;;1.10;;
23171;SDS011;11754;42.664;23.594;2024-03-22T14:05:31;3.30;;;1.30;;
23171;SDS011;11754;42.664;23.594;2024-03-22T14:07:57;1.75;;;1.00;;
23171;SDS011;11754;42.664;23.594;2024-03-22T14:10:24;2.15;;;1.10;;
23171;SDS011;11754;42.664;23.594;2024-03-22T14:12:51;1.95;;;1.08;;
23171;SDS011;11754;42.664;23.594;2024-03-22T14:15:17;3.83;;;1.17;;
23171;SDS011;11754;42.664;23.594;2024-03-22T14:17:42;2.30;;;1.10;;
23171;SDS011;11754;42.664;23.594;2024-03-22T14:20:08;4.95;;;1.40;;
23171;SDS011;11754;42.664;23.594;2024-03-22T14:22:37;2.38;;;1.20;;